Time;durP1;ratioP1;P1;durP2;ratioP2;P2;SDS_P1;SDS_P2;PMS_P1;PMS_P2;Temp;Humidity;BMP_temperature;BMP_pressure;BME280_temperature;BME280_humidity;BME280_pressure;Samples;Min_cycle;Max_cycle;Signal;HPM_P1;HPM_P2
2023/02/26 00:02:08;;;;;;;0.10;0.10;;;3.70;91.90;;;;;;4992224;28;20634;-80
2023/02/26 00:04:34;;;;;;;0.10;0.10;;;3.70;92.20;;;;;;4982705;28;20485;-80
2023/02/26 00:07:00;;;;;;;0.35;0.35;;;3.70;92.00;;;;;;4972271;28;20041;-81
2023/02/26 00:09:26;;;;;;;0.13;0.13;;;3.70;91.90;;;;;;5002085;28;20026;-81
2023/02/26 00:11:52;;;;;;;0.20;0.20;;;3.80;91.30;;;;;;5001837;28;20040;-80
2023/02/26 00:14:18;;;;;;;0.10;0.10;;;3.70;91.60;;;;;;4990446;28;20444;-80
2023/02/26 00:16:52;;;;;;;0.10;0.10;;;3.70;91.90;;;;;;5001700;28;20501;-80
2023/02/26 00:19:18;;;;;;;0.20;0.20;;;3.60;91.50;;;;;;5001107;28;20033;-80
2023/02/26 00:21:44;;;;;;;0.00;0.00;;;3.60;91.50;;;;;;4998490;28;20034;-81
2023/02/26 00:24:10;;;;;;;0.08;0.08;;;3.50;91.60;;;;;;4997133;28;20040;-80
2023/02/26 00:26:36;;;;;;;0.15;0.15;;;3.60;91.00;;;;;;4990990;28;20088;-80
2023/02/26 00:29:03;;;;;;;0.65;0.65;;;3.70;90.50;;;;;;4980902;28;20037;-80
2023/02/26 00:31:29;;;;;;;0.15;0.15;;;3.50;91.20;;;;;;4995038;28;20540;-80
2023/02/26 00:33:56;;;;;;;0.15;0.15;;;3.50;90.90;;;;;;4997387;28;20113;-80
2023/02/26 00:36:28;;;;;;;0.10;0.10;;;3.40;90.80;;;;;;4995635;28;20026;-81
2023/02/26 00:39:22;;;;;;;0.10;0.10;;;3.40;90.80;;;;;;4993749;28;20084;-80
2023/02/26 00:41:48;;;;;;;0.10;0.10;;;3.40;90.90;;;;;;4995204;28;20034;-81
2023/02/26 00:44:14;;;;;;;1.13;0.85;;;3.50;90.50;;;;;;4983610;28;20045;-81
2023/02/26 00:46:58;;;;;;;0.38;0.30;;;3.50;90.20;;;;;;4999533;28;20030;-81
2023/02/26 00:49:38;;;;;;;0.10;0.10;;;3.40;90.20;;;;;;4998760;28;20079;-81
2023/02/26 00:52:09;;;;;;;0.20;0.20;;;3.30;90.30;;;;;;4993456;28;20038;-81
2023/02/26 00:54:35;;;;;;;0.20;0.20;;;3.40;90.20;;;;;;4995955;28;20045;-80
2023/02/26 00:57:03;;;;;;;0.20;0.20;;;3.40;89.20;;;;;;4995192;28;20022;-81
2023/02/26 00:59:29;;;;;;;0.10;0.10;;;3.40;89.70;;;;;;4995610;28;20030;-81
2023/02/26 01:01:54;;;;;;;0.30;0.30;;;3.20;90.10;;;;;;4993134;28;20081;-81
2023/02/26 01:04:21;;;;;;;0.10;0.10;;;3.30;89.20;;;;;;4993913;28;20019;-81
2023/02/26 01:06:53;;;;;;;0.20;0.20;;;3.20;89.20;;;;;;4968540;28;20804;-81
2023/02/26 01:09:26;;;;;;;0.10;0.10;;;3.30;88.80;;;;;;4997770;28;20092;-80
2023/02/26 01:11:54;;;;;;;0.20;0.20;;;3.20;88.70;;;;;;5001811;28;20045;-79
2023/02/26 01:14:20;;;;;;;0.10;0.10;;;3.30;88.30;;;;;;4983909;28;20497;-80
2023/02/26 01:17:03;;;;;;;0.10;0.10;;;3.40;87.00;;;;;;5000395;28;20148;-79
2023/02/26 01:19:40;;;;;;;0.10;0.10;;;3.30;87.00;;;;;;4998223;28;20044;-80
2023/02/26 01:22:16;;;;;;;0.10;0.10;;;3.30;87.70;;;;;;4982300;28;20125;-80
2023/02/26 01:24:42;;;;;;;0.30;0.30;;;3.30;86.80;;;;;;5000271;28;20089;-80
2023/02/26 01:27:08;;;;;;;0.10;0.10;;;3.20;87.40;;;;;;4994264;28;20061;-80
2023/02/26 01:29:34;;;;;;;0.52;0.52;;;3.20;86.90;;;;;;4978943;28;20077;-80
2023/02/26 01:32:19;;;;;;;1.35;1.13;;;3.20;87.40;;;;;;4999926;28;20038;-80
2023/02/26 01:35:03;;;;;;;0.20;0.20;;;3.10;87.10;;;;;;4989319;28;20030;-80
2023/02/26 01:37:47;;;;;;;0.10;0.10;;;3.10;87.00;;;;;;4998982;28;20109;-80
2023/02/26 01:40:37;;;;;;;0.10;0.10;;;3.10;86.80;;;;;;4999664;28;20058;-80
2023/02/26 01:43:11;;;;;;;0.10;0.10;;;3.10;86.30;;;;;;4996011;28;20030;-81
2023/02/26 01:46:04;;;;;;;0.43;0.43;;;3.10;85.80;;;;;;4997175;28;20037;-80
2023/02/26 01:48:48;;;;;;;0.10;0.10;;;3.10;85.50;;;;;;4998578;28;20034;-80
2023/02/26 01:51:14;;;;;;;0.10;0.10;;;3.00;86.20;;;;;;4998531;28;20061;-80
2023/02/26 01:53:40;;;;;;;0.10;0.10;;;2.90;86.30;;;;;;4994389;28;20498;-80
2023/02/26 01:56:16;;;;;;;2.25;0.20;;;3.00;84.60;;;;;;4997406;28;20061;-80
2023/02/26 01:58:43;;;;;;;6.83;1.70;;;2.90;84.90;;;;;;4995303;28;20041;-80
2023/02/26 02:01:08;;;;;;;;;;;2.80;85.60;;;;;;4998935;28;20115;-81
2023/02/26 02:03:38;;;;;;;0.10;0.10;;;2.80;84.80;;;;;;5001667;28;20189;-81
2023/02/26 02:06:08;;;;;;;0.08;0.08;;;2.80;84.50;;;;;;4997870;28;20113;-81
2023/02/26 02:08:34;;;;;;;0.10;0.10;;;2.70;84.80;;;;;;4998402;28;20635;-80
2023/02/26 02:11:02;;;;;;;0.20;0.20;;;2.60;85.10;;;;;;4988350;28;20408;-80
2023/02/26 02:13:38;;;;;;;0.25;0.25;;;2.60;84.70;;;;;;5003673;28;20041;-80
2023/02/26 02:16:15;;;;;;;0.10;0.10;;;2.60;84.60;;;;;;4984409;28;20081;-80
2023/02/26 02:19:01;;;;;;;;;;;2.60;83.60;;;;;;5003717;28;20776;-79
2023/02/26 02:22:00;;;;;;;0.10;0.10;;;2.60;82.90;;;;;;4992302;28;20012;-79
2023/02/26 02:24:41;;;;;;;0.13;0.13;;;2.60;83.10;;;;;;5003508;28;20030;-79
2023/02/26 02:27:19;;;;;;;3.53;0.52;;;2.60;83.70;;;;;;5000861;28;20102;-79
2023/02/26 02:30:10;;;;;;;0.17;0.17;;;2.50;83.30;;;;;;4997552;28;20036;-78
2023/02/26 02:32:44;;;;;;;0.50;0.50;;;2.50;83.10;;;;;;4997578;28;20049;-79
2023/02/26 02:35:40;;;;;;;2.03;1.85;;;2.50;82.60;;;;;;4988966;28;20027;-79
2023/02/26 02:38:24;;;;;;;0.10;0.10;;;2.60;81.80;;;;;;4981335;28;20145;-79
2023/02/26 02:41:02;;;;;;;0.38;0.38;;;2.50;82.40;;;;;;5001843;28;20085;-79
2023/02/26 02:43:32;;;;;;;0.10;0.10;;;2.40;83.00;;;;;;4994653;28;20096;-79
2023/02/26 02:46:05;;;;;;;0.13;0.13;;;2.30;83.10;;;;;;5001386;28;20492;-78
2023/02/26 02:48:46;;;;;;;0.10;0.10;;;2.30;83.20;;;;;;5004759;28;20036;-79
2023/02/26 02:51:18;;;;;;;0.10;0.10;;;2.20;83.40;;;;;;4978261;28;20257;-79
2023/02/26 02:53:55;;;;;;;0.10;0.10;;;2.20;83.40;;;;;;5002867;28;20147;-79
2023/02/26 02:56:30;;;;;;;0.10;0.10;;;2.20;83.60;;;;;;5000460;28;20513;-79
2023/02/26 02:59:33;;;;;;;0.10;0.10;;;2.20;83.10;;;;;;4997873;28;20029;-79
2023/02/26 03:02:21;;;;;;;0.10;0.10;;;2.20;83.20;;;;;;4950418;28;20053;-79
2023/02/26 03:04:47;;;;;;;0.60;0.43;;;2.10;84.10;;;;;;4980852;28;20069;-79
2023/02/26 03:07:13;;;;;;;0.60;0.60;;;2.10;83.70;;;;;;4992625;28;20116;-79
2023/02/26 03:09:40;;;;;;;0.10;0.10;;;2.10;83.50;;;;;;4983284;28;20125;-79
2023/02/26 03:12:05;;;;;;;0.10;0.10;;;2.10;83.00;;;;;;4996858;28;20042;-79
2023/02/26 03:14:32;;;;;;;0.10;0.10;;;2.00;83.50;;;;;;4999617;28;20343;-79
2023/02/26 03:17:01;;;;;;;0.10;0.10;;;2.00;83.40;;;;;;5003606;28;20109;-80
2023/02/26 03:19:35;;;;;;;0.10;0.10;;;2.10;83.30;;;;;;4991373;28;20034;-80
2023/02/26 03:22:39;;;;;;;0.40;0.40;;;1.90;84.10;;;;;;4990190;28;20041;-81
2023/02/26 03:25:25;;;;;;;0.10;0.10;;;1.90;84.20;;;;;;4997248;28;20069;-80
2023/02/26 03:28:06;;;;;;;0.10;0.10;;;1.80;84.60;;;;;;5000544;28;20040;-80
2023/02/26 03:30:34;;;;;;;0.10;0.10;;;1.90;83.90;;;;;;4975089;28;20887;-79
2023/02/26 03:33:21;;;;;;;0.17;0.17;;;2.00;83.30;;;;;;5001922;28;20081;-78
2023/02/26 03:35:49;;;;;;;;;;;1.90;83.80;;;;;;5002868;28;20022;-78
2023/02/26 03:38:28;;;;;;;1.45;1.13;;;1.80;84.50;;;;;;4988542;28;19952;-80
2023/02/26 03:41:07;;;;;;;0.38;0.38;;;1.90;84.10;;;;;;4984153;28;20030;-79
2023/02/26 03:43:36;;;;;;;0.10;0.10;;;1.90;84.60;;;;;;4999799;28;20053;-79
2023/02/26 03:46:06;;;;;;;1.02;0.45;;;1.80;84.50;;;;;;4999428;28;20028;-79
2023/02/26 03:48:35;;;;;;;0.10;0.10;;;1.70;85.40;;;;;;4994777;28;20904;-79
2023/02/26 03:51:13;;;;;;;0.10;0.10;;;1.70;85.60;;;;;;4991455;28;20042;-79
2023/02/26 03:54:06;;;;;;;0.20;0.20;;;1.80;85.20;;;;;;4995299;28;20022;-78
2023/02/26 03:56:44;;;;;;;0.10;0.10;;;1.70;85.50;;;;;;4995512;28;20884;-78
2023/02/26 03:59:12;;;;;;;0.20;0.20;;;1.70;86.10;;;;;;4996401;28;20062;-78
2023/02/26 04:02:06;;;;;;;0.10;0.10;;;1.60;86.30;;;;;;4983128;28;20018;-78
2023/02/26 04:04:59;;;;;;;0.10;0.10;;;1.60;86.70;;;;;;4988728;28;20060;-77
2023/02/26 04:07:26;;;;;;;0.10;0.10;;;1.60;86.50;;;;;;5003398;28;20058;-77
2023/02/26 04:09:52;;;;;;;0.10;0.10;;;1.60;86.30;;;;;;4991357;28;20137;-78
2023/02/26 04:12:22;;;;;;;0.10;0.10;;;1.60;86.70;;;;;;4985488;28;20290;-78
2023/02/26 04:14:48;;;;;;;0.10;0.10;;;1.50;87.00;;;;;;4996689;28;20184;-78
2023/02/26 04:17:14;;;;;;;0.10;0.10;;;1.60;86.90;;;;;;5005780;28;20034;-78
2023/02/26 04:19:40;;;;;;;0.10;0.10;;;1.60;87.10;;;;;;4990663;28;20032;-78
2023/02/26 04:22:05;;;;;;;0.13;0.13;;;1.50;87.30;;;;;;5009434;28;20104;-78
2023/02/26 04:24:31;;;;;;;0.10;0.10;;;1.60;87.00;;;;;;5007713;28;20049;-78
2023/02/26 04:26:57;;;;;;;0.20;0.20;;;1.60;87.30;;;;;;4985120;28;20072;-78
2023/02/26 04:29:22;;;;;;;0.10;0.10;;;1.50;87.50;;;;;;4996706;28;20170;-78
2023/02/26 04:31:48;;;;;;;0.10;0.10;;;1.50;88.30;;;;;;4987199;28;20034;-78
2023/02/26 04:34:14;;;;;;;0.17;0.17;;;1.40;88.60;;;;;;5001054;28;20021;-78
2023/02/26 04:36:40;;;;;;;0.10;0.10;;;1.50;88.80;;;;;;5002670;28;20038;-78
2023/02/26 04:39:09;;;;;;;0.10;0.10;;;1.40;89.10;;;;;;5010321;28;20029;-78
2023/02/26 04:41:35;;;;;;;0.10;0.10;;;1.40;89.60;;;;;;5002925;28;20500;-78
2023/02/26 04:44:01;;;;;;;0.10;0.10;;;1.50;89.00;;;;;;5002439;28;20049;-78
2023/02/26 04:46:27;;;;;;;0.40;0.40;;;1.60;88.10;;;;;;5009058;28;20428;-78
2023/02/26 04:48:52;;;;;;;0.10;0.10;;;1.60;88.40;;;;;;5007710;28;20767;-78
2023/02/26 04:51:18;;;;;;;2.45;2.25;;;1.50;88.80;;;;;;4980277;28;20037;-78
2023/02/26 04:53:44;;;;;;;0.38;0.38;;;1.50;88.80;;;;;;4970026;28;20029;-77
2023/02/26 04:56:10;;;;;;;0.10;0.10;;;1.60;88.50;;;;;;5002371;28;20022;-77
2023/02/26 04:58:35;;;;;;;0.10;0.10;;;1.60;88.20;;;;;;5013058;28;20099;-78
2023/02/26 05:01:01;;;;;;;0.10;0.10;;;1.70;88.10;;;;;;4996921;28;20881;-78
2023/02/26 05:03:27;;;;;;;0.10;0.10;;;1.60;88.70;;;;;;4998614;28;20116;-79
2023/02/26 05:05:53;;;;;;;0.52;0.52;;;1.70;88.20;;;;;;4995696;28;20041;-78
2023/02/26 05:08:18;;;;;;;0.10;0.10;;;1.50;89.10;;;;;;4993382;28;20026;-78
2023/02/26 05:10:45;;;;;;;0.10;0.10;;;1.40;89.60;;;;;;4992940;28;20429;-78
2023/02/26 05:13:10;;;;;;;0.00;0.00;;;1.30;89.80;;;;;;4990810;28;20049;-78
2023/02/26 05:15:36;;;;;;;0.10;0.10;;;1.30;90.10;;;;;;4979893;28;20561;-79
2023/02/26 05:18:02;;;;;;;5.18;1.55;;;1.40;89.60;;;;;;4996881;28;20080;-79
2023/02/26 05:20:27;;;;;;;0.10;0.10;;;1.50;89.20;;;;;;4994175;28;20045;-78
2023/02/26 05:22:53;;;;;;;0.10;0.10;;;1.40;89.70;;;;;;5000925;28;20034;-79
2023/02/26 05:25:19;;;;;;;0.10;0.10;;;1.30;90.00;;;;;;4999966;28;20036;-78
2023/02/26 05:27:45;;;;;;;0.03;0.03;;;1.50;89.30;;;;;;4993935;28;20030;-77
2023/02/26 05:30:14;;;;;;;0.10;0.10;;;1.50;89.30;;;;;;5005128;28;20057;-78
2023/02/26 05:32:39;;;;;;;0.75;0.75;;;1.40;90.00;;;;;;4987466;28;20038;-78
2023/02/26 05:35:06;;;;;;;1.88;1.65;;;1.30;90.00;;;;;;5010868;28;20084;-78
2023/02/26 05:37:31;;;;;;;0.05;0.05;;;1.30;90.20;;;;;;5002291;28;20037;-78
2023/02/26 05:39:57;;;;;;;0.20;0.20;;;1.30;90.30;;;;;;5007467;28;20041;-78
2023/02/26 05:42:23;;;;;;;0.35;0.35;;;1.30;90.10;;;;;;5011597;28;20088;-79
2023/02/26 05:44:49;;;;;;;0.10;0.10;;;1.30;90.10;;;;;;5007855;28;20049;-78
2023/02/26 05:47:15;;;;;;;0.10;0.10;;;1.20;90.20;;;;;;4994629;28;20033;-78
2023/02/26 05:49:41;;;;;;;0.17;0.17;;;1.10;90.60;;;;;;5011151;28;20018;-78
2023/02/26 05:52:07;;;;;;;0.10;0.10;;;1.20;90.60;;;;;;5002431;28;20084;-78
2023/02/26 05:54:33;;;;;;;0.10;0.10;;;1.10;90.40;;;;;;5005547;28;20097;-78
2023/02/26 05:56:59;;;;;;;0.10;0.10;;;1.20;90.40;;;;;;5014019;28;20058;-78
2023/02/26 05:59:25;;;;;;;0.57;0.53;;;1.20;90.20;;;;;;4999432;28;20053;-78
2023/02/26 06:01:50;;;;;;;0.10;0.10;;;1.20;90.40;;;;;;4983812;28;20977;-78
2023/02/26 06:04:16;;;;;;;0.10;0.10;;;1.20;90.30;;;;;;4989660;28;20080;-78
2023/02/26 06:06:42;;;;;;;0.10;0.10;;;1.20;90.30;;;;;;5000819;28;20031;-78
2023/02/26 06:09:08;;;;;;;0.10;0.10;;;1.30;90.20;;;;;;4994199;28;20045;-78
2023/02/26 06:11:34;;;;;;;0.00;0.00;;;1.30;90.20;;;;;;4996526;28;20046;-78
2023/02/26 06:14:00;;;;;;;0.40;0.40;;;1.30;90.30;;;;;;4992944;28;20026;-79
2023/02/26 06:16:26;;;;;;;0.30;0.30;;;1.20;90.40;;;;;;5001244;28;20029;-78
2023/02/26 06:18:52;;;;;;;0.00;0.00;;;1.40;89.90;;;;;;4996213;28;20033;-79
2023/02/26 06:21:18;;;;;;;0.15;0.15;;;1.30;90.20;;;;;;5002990;28;20038;-79
2023/02/26 06:23:43;;;;;;;0.13;0.13;;;1.30;90.20;;;;;;4999979;28;20085;-80
2023/02/26 06:26:10;;;;;;;0.10;0.10;;;1.30;90.10;;;;;;5000142;28;20412;-81
2023/02/26 06:28:35;;;;;;;0.43;0.43;;;1.20;90.20;;;;;;5002200;28;20031;-79
2023/02/26 06:31:02;;;;;;;0.10;0.10;;;1.20;90.40;;;;;;4974173;28;20452;-78
2023/02/26 06:33:27;;;;;;;0.10;0.10;;;1.00;90.80;;;;;;4994376;28;20072;-79
2023/02/26 06:35:54;;;;;;;0.10;0.10;;;1.20;90.60;;;;;;5001691;28;20834;-79
2023/02/26 06:38:20;;;;;;;0.40;0.40;;;1.30;90.10;;;;;;4998499;28;20610;-79
2023/02/26 06:40:47;;;;;;;0.82;0.82;;;1.30;90.20;;;;;;5001103;28;20064;-79
2023/02/26 06:43:12;;;;;;;0.10;0.10;;;1.20;90.50;;;;;;4997208;28;20038;-80
2023/02/26 06:45:38;;;;;;;0.38;0.38;;;1.20;90.60;;;;;;5008817;28;20499;-82
2023/02/26 06:48:04;;;;;;;0.10;0.10;;;1.30;90.20;;;;;;5001741;28;20034;-81
2023/02/26 06:50:30;;;;;;;0.63;0.63;;;1.40;90.00;;;;;;4997136;28;20032;-83
2023/02/26 06:52:56;;;;;;;0.10;0.10;;;1.50;89.60;;;;;;5003115;28;20120;-82
2023/02/26 06:55:25;;;;;;;0.10;0.10;;;2.30;87.00;;;;;;4986117;28;20026;-82
2023/02/26 06:57:55;;;;;;;0.05;0.05;;;2.70;84.30;;;;;;4988028;28;20029;-82
2023/02/26 07:00:22;;;;;;;0.10;0.10;;;3.00;82.80;;;;;;5002135;28;20029;-81
2023/02/26 07:02:48;;;;;;;0.10;0.10;;;3.30;82.00;;;;;;5002326;28;20111;-82
2023/02/26 07:05:14;;;;;;;0.00;0.00;;;3.60;80.30;;;;;;5008196;28;20116;-83
2023/02/26 07:07:40;;;;;;;0.10;0.10;;;3.40;79.90;;;;;;4997325;28;20322;-81
2023/02/26 07:10:06;;;;;;;0.10;0.10;;;2.70;82.90;;;;;;5002130;28;20030;-82
2023/02/26 07:12:32;;;;;;;0.28;0.28;;;3.50;80.50;;;;;;5002742;28;20133;-83
2023/02/26 07:14:57;;;;;;;0.10;0.10;;;4.40;77.70;;;;;;5007615;28;20183;-82
2023/02/26 07:17:23;;;;;;;0.10;0.10;;;4.20;77.20;;;;;;4977041;28;20042;-79
2023/02/26 07:19:51;;;;;;;0.10;0.10;;;4.20;76.70;;;;;;5015352;28;20679;-82
2023/02/26 07:22:18;;;;;;;0.50;0.50;;;4.30;76.30;;;;;;4989425;28;20034;-80
2023/02/26 07:24:44;;;;;;;0.45;0.45;;;4.50;75.20;;;;;;5021126;28;20021;-81
2023/02/26 07:27:10;;;;;;;0.30;0.30;;;4.50;74.20;;;;;;4993347;28;20402;-79
2023/02/26 07:29:36;;;;;;;0.10;0.10;;;4.60;74.80;;;;;;4986969;28;20104;-78
2023/02/26 07:32:03;;;;;;;0.22;0.22;;;4.60;74.70;;;;;;5002560;28;20300;-79
2023/02/26 07:34:29;;;;;;;4.82;1.45;;;4.90;73.80;;;;;;5011433;28;20029;-80
2023/02/26 07:36:54;;;;;;;0.45;0.35;;;5.00;70.50;;;;;;5018234;28;20049;-78
2023/02/26 07:39:20;;;;;;;0.50;0.50;;;5.30;69.60;;;;;;5014990;28;20536;-79
2023/02/26 07:41:46;;;;;;;0.10;0.10;;;6.00;68.60;;;;;;4985049;28;20060;-78
2023/02/26 07:44:11;;;;;;;0.10;0.10;;;5.80;69.70;;;;;;5017094;28;20473;-79
2023/02/26 07:46:37;;;;;;;0.90;0.90;;;6.10;67.30;;;;;;4996198;28;20129;-78
2023/02/26 07:49:03;;;;;;;2.28;2.08;;;5.90;68.10;;;;;;4998604;28;20034;-78
2023/02/26 07:51:28;;;;;;;0.10;0.10;;;5.80;67.20;;;;;;4991967;28;20133;-78
2023/02/26 07:53:54;;;;;;;0.10;0.10;;;6.00;67.90;;;;;;5013554;28;20068;-80
2023/02/26 07:56:20;;;;;;;0.28;0.28;;;6.10;66.40;;;;;;5013166;28;20430;-79
2023/02/26 07:58:46;;;;;;;0.13;0.13;;;6.10;65.40;;;;;;5013553;28;20029;-79
2023/02/26 08:01:11;;;;;;;0.47;0.47;;;5.80;65.60;;;;;;5008133;28;20065;-79
2023/02/26 08:03:37;;;;;;;0.13;0.13;;;5.80;64.80;;;;;;5011567;28;20025;-79
2023/02/26 08:06:04;;;;;;;0.38;0.38;;;6.00;65.60;;;;;;4989397;28;20076;-79
2023/02/26 08:08:30;;;;;;;0.10;0.10;;;5.90;62.70;;;;;;4982800;28;20061;-82
2023/02/26 08:10:58;;;;;;;0.10;0.10;;;6.00;63.10;;;;;;4992119;28;20064;-78
2023/02/26 08:13:24;;;;;;;0.20;0.20;;;6.20;63.70;;;;;;4992136;28;20025;-81
2023/02/26 08:15:50;;;;;;;0.10;0.10;;;6.40;62.20;;;;;;5008332;28;20468;-79
2023/02/26 08:18:15;;;;;;;0.20;0.20;;;6.70;61.90;;;;;;5021270;28;20056;-80
2023/02/26 08:20:41;;;;;;;0.10;0.10;;;7.30;60.60;;;;;;5020922;28;20909;-80
2023/02/26 08:23:07;;;;;;;0.10;0.10;;;7.80;62.00;;;;;;5001404;28;20120;-80
2023/02/26 08:25:32;;;;;;;0.17;0.17;;;7.80;59.00;;;;;;4991073;28;20052;-81
2023/02/26 08:27:59;;;;;;;0.20;0.20;;;7.60;57.90;;;;;;5013586;28;20044;-78
2023/02/26 08:30:25;;;;;;;0.10;0.10;;;8.50;60.30;;;;;;4994885;28;20030;-80
2023/02/26 08:32:51;;;;;;;0.15;0.15;;;8.10;58.40;;;;;;5004357;28;20051;-80
2023/02/26 08:35:17;;;;;;;0.30;0.30;;;7.80;58.90;;;;;;5017891;28;20026;-80
2023/02/26 08:37:43;;;;;;;0.30;0.30;;;7.80;58.70;;;;;;5014875;28;20018;-79
2023/02/26 08:40:09;;;;;;;0.10;0.10;;;7.90;58.00;;;;;;4986254;28;20069;-80
2023/02/26 08:42:35;;;;;;;0.28;0.28;;;8.20;58.80;;;;;;4993315;28;20588;-80
2023/02/26 08:45:01;;;;;;;0.68;0.68;;;7.90;57.60;;;;;;5010087;28;20057;-80
2023/02/26 08:47:27;;;;;;;0.15;0.15;;;7.90;57.40;;;;;;5011587;28;20083;-80
2023/02/26 08:49:53;;;;;;;0.10;0.10;;;7.80;56.10;;;;;;5014842;28;20477;-80
2023/02/26 08:52:20;;;;;;;0.10;0.10;;;7.70;56.60;;;;;;4992851;28;20038;-80
2023/02/26 08:54:45;;;;;;;0.10;0.10;;;9.00;53.90;;;;;;5008648;28;20029;-80
2023/02/26 08:57:11;;;;;;;0.10;0.10;;;8.30;54.50;;;;;;5008937;28;20104;-81
2023/02/26 08:59:37;;;;;;;0.25;0.25;;;7.80;55.50;;;;;;5008637;28;20030;-81
2023/02/26 09:02:02;;;;;;;0.10;0.10;;;8.40;53.10;;;;;;4984896;28;20038;-81
2023/02/26 09:04:28;;;;;;;0.10;0.10;;;8.20;54.00;;;;;;5001274;28;20034;-81
2023/02/26 09:06:54;;;;;;;0.10;0.10;;;8.10;52.80;;;;;;5002871;28;20504;-81
2023/02/26 09:09:20;;;;;;;0.15;0.15;;;7.10;52.10;;;;;;4995827;28;20138;-79
2023/02/26 09:11:46;;;;;;;0.10;0.10;;;7.50;53.40;;;;;;4987357;28;20546;-80
2023/02/26 09:14:12;;;;;;;0.10;0.10;;;7.80;53.60;;;;;;4988158;28;20029;-81
2023/02/26 09:16:38;;;;;;;0.10;0.10;;;7.80;54.10;;;;;;5004466;28;20038;-80
2023/02/26 09:19:05;;;;;;;0.22;0.22;;;7.60;51.50;;;;;;4983108;28;20505;-80
2023/02/26 09:21:31;;;;;;;;;;;7.30;52.70;;;;;;5002321;28;20100;-78
2023/02/26 09:23:57;;;;;;;0.10;0.10;;;7.80;52.70;;;;;;5003290;28;20531;-79
2023/02/26 09:26:23;;;;;;;0.10;0.10;;;7.90;51.20;;;;;;5010319;28;20773;-79
2023/02/26 09:28:49;;;;;;;0.10;0.10;;;7.50;50.00;;;;;;4994441;28;20397;-79
2023/02/26 09:31:14;;;;;;;0.10;0.10;;;8.20;52.80;;;;;;5009026;28;20211;-78
2023/02/26 09:33:40;;;;;;;0.10;0.10;;;8.10;51.20;;;;;;5000317;28;20033;-80
2023/02/26 09:36:06;;;;;;;0.10;0.10;;;8.30;50.80;;;;;;5012445;28;20082;-79
2023/02/26 09:38:34;;;;;;;0.93;0.93;;;8.90;51.20;;;;;;5012556;28;20046;-79
2023/02/26 09:41:22;;;;;;;0.63;0.52;;;8.40;50.00;;;;;;5018546;28;20021;-79
2023/02/26 09:44:08;;;;;;;0.10;0.10;;;9.00;50.60;;;;;;5002483;28;20117;-79
2023/02/26 09:46:56;;;;;;;0.40;0.40;;;8.40;50.30;;;;;;4985998;28;20022;-79
2023/02/26 09:50:04;;;;;;;0.55;0.55;;;7.90;47.10;;;;;;5019892;28;20032;-80
2023/02/26 09:52:55;;;;;;;0.15;0.15;;;7.60;48.10;;;;;;5000571;28;20032;-79
2023/02/26 09:55:33;;;;;;;0.20;0.20;;;6.80;47.10;;;;;;5003925;28;20589;-79
2023/02/26 09:58:03;;;;;;;0.38;0.38;;;6.60;49.20;;;;;;4998113;28;20084;-80
2023/02/26 10:01:00;;;;;;;0.15;0.15;;;6.30;45.70;;;;;;4984678;28;20117;-79
2023/02/26 10:03:43;;;;;;;;;;;6.50;47.80;;;;;;5008981;28;20858;-79
2023/02/26 10:06:20;;;;;;;0.15;0.15;;;6.50;49.00;;;;;;4998965;28;19913;-79
2023/02/26 10:08:49;;;;;;;;;;;6.30;46.50;;;;;;5008673;28;20145;-79
2023/02/26 10:11:46;;;;;;;0.10;0.10;;;6.60;47.60;;;;;;5017046;28;19917;-79
2023/02/26 10:14:19;;;;;;;0.10;0.10;;;6.90;48.60;;;;;;4994403;28;20038;-79
2023/02/26 10:16:50;;;;;;;0.10;0.10;;;6.90;46.90;;;;;;5007663;28;20018;-78
2023/02/26 10:19:24;;;;;;;0.20;0.20;;;6.70;47.60;;;;;;5012843;28;20021;-78
2023/02/26 10:22:20;;;;;;;0.10;0.10;;;6.70;47.60;;;;;;5003913;28;20084;-78
2023/02/26 10:24:49;;;;;;;;;;;6.50;46.00;;;;;;5002383;28;20478;-84
2023/02/26 10:27:21;;;;;;;0.50;0.50;;;6.10;45.80;;;;;;4980707;28;19914;-79
2023/02/26 10:29:59;;;;;;;0.10;0.10;;;6.20;45.20;;;;;;5013597;28;20107;-78
2023/02/26 10:32:34;;;;;;;0.10;0.10;;;6.10;44.20;;;;;;5014655;28;20894;-79
2023/02/26 10:35:03;;;;;;;0.20;0.20;;;6.40;45.60;;;;;;4996680;28;20898;-78
2023/02/26 10:37:58;;;;;;;0.10;0.10;;;6.40;47.00;;;;;;4989817;28;20035;-78
2023/02/26 10:40:35;;;;;;;0.10;0.10;;;6.30;44.60;;;;;;5017917;28;20512;-78
2023/02/26 10:43:01;;;;;;;0.10;0.10;;;6.10;45.60;;;;;;5013323;28;20489;-79
2023/02/26 10:45:46;;;;;;;0.10;0.10;;;6.10;47.40;;;;;;5007418;28;20026;-80
2023/02/26 10:48:30;;;;;;;0.10;0.10;;;6.20;48.40;;;;;;5020547;28;20030;-80
2023/02/26 10:50:58;;;;;;;0.10;0.10;;;6.40;47.70;;;;;;4997732;28;20033;-78
2023/02/26 10:53:26;;;;;;;0.28;0.28;;;6.80;49.60;;;;;;5001102;28;20064;-78
2023/02/26 10:56:23;;;;;;;0.10;0.10;;;6.30;45.90;;;;;;4982736;28;20049;-78
2023/02/26 10:58:50;;;;;;;0.10;0.10;;;6.20;45.60;;;;;;5000267;28;20022;-79
2023/02/26 11:01:17;;;;;;;;;;;6.30;44.70;;;;;;4996733;28;20474;-78
2023/02/26 11:03:46;;;;;;;0.10;0.10;;;6.50;44.60;;;;;;5003844;28;19908;-78
2023/02/26 11:06:21;;;;;;;0.10;0.10;;;6.40;43.50;;;;;;4978279;28;20029;-79
2023/02/26 11:08:51;;;;;;;0.10;0.10;;;6.50;45.70;;;;;;5014827;28;20595;-78
2023/02/26 11:11:39;;;;;;;0.20;0.20;;;6.50;46.60;;;;;;5005258;28;20072;-78
2023/02/26 11:14:05;;;;;;;0.30;0.30;;;6.60;45.80;;;;;;5014698;28;20106;-77
2023/02/26 11:16:31;;;;;;;3.53;0.55;;;6.60;44.80;;;;;;5004398;28;20029;-78
2023/02/26 11:19:00;;;;;;;0.10;0.10;;;6.30;43.10;;;;;;4999662;28;20136;-76
2023/02/26 11:21:33;;;;;;;0.10;0.10;;;6.30;45.30;;;;;;5002596;28;20052;-77
2023/02/26 11:24:06;;;;;;;0.10;0.10;;;6.20;43.20;;;;;;4999168;28;20022;-76
2023/02/26 11:26:35;;;;;;;0.10;0.10;;;6.10;44.70;;;;;;5003318;28;20120;-79
2023/02/26 11:29:01;;;;;;;0.10;0.10;;;6.20;46.60;;;;;;5002665;28;20097;-79
2023/02/26 11:31:28;;;;;;;0.10;0.10;;;6.60;46.00;;;;;;4997839;28;20543;-79
2023/02/26 11:34:01;;;;;;;0.10;0.10;;;6.50;43.20;;;;;;5010169;28;20494;-80
2023/02/26 11:36:29;;;;;;;0.52;0.52;;;6.20;43.20;;;;;;5000334;28;20033;-82
2023/02/26 11:39:15;;;;;;;0.17;0.17;;;5.90;43.20;;;;;;4998506;28;20025;-78
2023/02/26 11:41:43;;;;;;;0.10;0.10;;;5.90;43.90;;;;;;5002094;28;20100;-78
2023/02/26 11:44:17;;;;;;;0.10;0.10;;;5.70;41.90;;;;;;5004168;28;20057;-78
2023/02/26 11:46:55;;;;;;;0.10;0.10;;;5.60;42.70;;;;;;4981029;28;20058;-77
2023/02/26 11:49:27;;;;;;;0.10;0.10;;;5.70;45.00;;;;;;4989044;28;20026;-78
2023/02/26 11:52:21;;;;;;;1.95;0.85;;;5.60;44.80;;;;;;5008103;28;20128;-77
2023/02/26 11:54:50;;;;;;;0.10;0.10;;;5.70;46.00;;;;;;4970971;28;20041;-78
2023/02/26 11:57:27;;;;;;;0.30;0.30;;;5.70;44.90;;;;;;5001681;28;20026;-78
2023/02/26 11:59:54;;;;;;;0.10;0.10;;;5.80;45.20;;;;;;4994782;28;20053;-76
2023/02/26 12:02:28;;;;;;;0.20;0.20;;;5.60;44.90;;;;;;5008674;28;20068;-78
2023/02/26 12:04:59;;;;;;;0.13;0.13;;;5.40;44.90;;;;;;4989175;28;20511;-76
2023/02/26 12:07:25;;;;;;;0.10;0.10;;;5.60;44.70;;;;;;4998058;28;20033;-77
2023/02/26 12:09:51;;;;;;;0.10;0.10;;;5.70;45.20;;;;;;4997543;28;20040;-79
2023/02/26 12:12:29;;;;;;;0.10;0.10;;;5.60;45.70;;;;;;4997486;28;20046;-78
2023/02/26 12:15:40;;;;;;;0.10;0.10;;;5.30;45.20;;;;;;5000329;28;20026;-80
2023/02/26 12:18:24;;;;;;;0.10;0.10;;;5.30;43.70;;;;;;4993871;28;20088;-78
2023/02/26 12:21:09;;;;;;;0.13;0.13;;;5.20;44.60;;;;;;4998342;28;20027;-76
2023/02/26 12:24:15;;;;;;;0.10;0.10;;;5.30;45.20;;;;;;4998424;28;20026;-79
2023/02/26 12:27:05;;;;;;;0.22;0.22;;;5.40;44.80;;;;;;4947379;28;20050;-77
2023/02/26 12:29:43;;;;;;;0.38;0.38;;;5.30;45.60;;;;;;4999561;28;20025;-80
2023/02/26 12:32:41;;;;;;;0.47;0.47;;;5.30;44.60;;;;;;4998233;28;20029;-77
2023/02/26 12:35:43;;;;;;;0.20;0.20;;;5.30;46.50;;;;;;5002487;28;20033;-78
2023/02/26 12:39:04;;;;;;;0.10;0.10;;;5.30;45.90;;;;;;4981777;28;20029;-77
2023/02/26 12:42:00;;;;;;;0.10;0.10;;;5.50;46.60;;;;;;4977847;28;20124;-77
2023/02/26 12:44:44;;;;;;;0.10;0.10;;;5.50;45.30;;;;;;4999534;28;20058;-81
2023/02/26 12:47:34;;;;;;;0.10;0.10;;;5.30;46.50;;;;;;4996053;28;20101;-77
2023/02/26 12:50:19;;;;;;;0.20;0.20;;;5.30;45.90;;;;;;4979577;28;20022;-79
2023/02/26 12:52:49;;;;;;;0.10;0.10;;;5.50;47.10;;;;;;4998937;28;20049;-77
2023/02/26 12:55:29;;;;;;;0.20;0.20;;;5.20;45.20;;;;;;5010979;28;20025;-77
2023/02/26 12:58:03;;;;;;;0.10;0.10;;;5.20;46.20;;;;;;5005631;28;20026;-77
2023/02/26 13:00:47;;;;;;;0.00;0.00;;;5.00;44.50;;;;;;4997608;28;20024;-76
2023/02/26 13:03:21;;;;;;;0.10;0.10;;;5.20;46.00;;;;;;4998891;28;20101;-77
2023/02/26 13:05:52;;;;;;;0.10;0.10;;;5.40;46.10;;;;;;5000282;28;20041;-80
2023/02/26 13:08:36;;;;;;;0.10;0.10;;;5.40;47.10;;;;;;4979879;28;20036;-78
2023/02/26 13:11:28;;;;;;;0.10;0.10;;;5.20;46.50;;;;;;5000484;28;20795;-79
2023/02/26 13:14:24;;;;;;;0.20;0.20;;;5.40;49.80;;;;;;4965087;28;20096;-79
2023/02/26 13:17:01;;;;;;;0.52;0.52;;;5.20;46.70;;;;;;4989773;28;20133;-79
2023/02/26 13:19:48;;;;;;;0.10;0.10;;;5.10;48.40;;;;;;4996340;28;20076;-78
2023/02/26 13:22:28;;;;;;;0.10;0.10;;;5.20;50.40;;;;;;4988642;28;20049;-78
2023/02/26 13:24:57;;;;;;;0.10;0.10;;;5.30;50.60;;;;;;5001658;28;21437;-79
2023/02/26 13:27:31;;;;;;;0.10;0.10;;;5.00;47.00;;;;;;4992829;28;20062;-83